createdAt,value
2022-10-18T00:00:32.885Z,69.10
2022-10-18T00:03:06.394Z,69.20
2022-10-18T00:05:40.423Z,69.30
2022-10-18T00:08:13.725Z,69.50
2022-10-18T00:10:47.731Z,69.30
2022-10-18T00:13:23.382Z,69.40
2022-10-18T00:16:02.339Z,69.50
2022-10-18T00:18:35.669Z,69.60
2022-10-18T00:21:12.733Z,69.50
2022-10-18T00:23:47.865Z,69.60
2022-10-18T00:26:23.882Z,69.70
2022-10-18T00:29:00.381Z,69.70
2022-10-18T00:31:37.823Z,69.70
2022-10-18T00:34:16.261Z,69.80
2022-10-18T00:36:49.595Z,69.70
2022-10-18T00:39:23.518Z,69.40
2022-10-18T00:41:56.849Z,70.30
2022-10-18T00:45:15.356Z,69.50
2022-10-18T00:47:56.491Z,69.80
2022-10-18T00:50:34.644Z,69.70
2022-10-18T00:53:16.295Z,69.70
2022-10-18T00:55:50.338Z,69.70
2022-10-18T00:58:23.739Z,69.60
2022-10-18T01:00:58.653Z,69.70
2022-10-18T01:03:34.082Z,69.50
2022-10-18T01:06:10.529Z,69.70
2022-10-18T01:08:58.939Z,69.70
2022-10-18T01:11:59.628Z,69.80
2022-10-18T01:14:47.709Z,69.90
2022-10-18T01:17:30.783Z,69.80
2022-10-18T01:20:37.024Z,69.70
2022-10-18T01:23:20.707Z,69.80
2022-10-18T01:26:17.085Z,69.70
2022-10-18T01:29:06.892Z,69.70
2022-10-18T01:31:54.273Z,69.80
2022-10-18T01:34:37.807Z,69.60
2022-10-18T01:37:18.408Z,69.70
2022-10-18T01:39:57.034Z,69.70
2022-10-18T01:42:31.544Z,69.70
2022-10-18T01:45:09.341Z,69.60
2022-10-18T01:47:46.756Z,69.50
2022-10-18T01:50:31.074Z,69.50
2022-10-18T01:53:04.828Z,69.50
2022-10-18T01:55:45.943Z,69.30
2022-10-18T01:58:29.496Z,69.40
2022-10-18T02:03:58.512Z,69.50
2022-10-18T02:06:38.056Z,69.50
2022-10-18T02:09:17.535Z,69.50
2022-10-18T02:11:57.460Z,69.60
2022-10-18T02:14:32.892Z,69.60
2022-10-18T02:17:11.146Z,69.60
2022-10-18T02:19:52.181Z,69.70
2022-10-18T02:22:32.169Z,69.60
2022-10-18T02:25:12.234Z,69.70
2022-10-18T02:27:45.955Z,69.70
2022-10-18T02:30:20.174Z,69.60
2022-10-18T02:33:02.697Z,69.60
2022-10-18T02:35:45.919Z,69.80
2022-10-18T02:38:21.720Z,69.90
2022-10-18T02:40:56.832Z,69.80
2022-10-18T02:43:30.138Z,70.00
2022-10-18T02:46:04.428Z,69.80
2022-10-18T02:48:40.892Z,70.10
2022-10-18T02:51:19.524Z,70.00
2022-10-18T02:53:54.840Z,69.90
2022-10-18T02:56:28.110Z,70.00
2022-10-18T02:59:01.600Z,69.90
2022-10-18T03:01:36.292Z,69.90
2022-10-18T03:04:09.797Z,70.00
2022-10-18T03:06:44.428Z,69.90
2022-10-18T03:09:17.803Z,70.50
2022-10-18T03:11:51.103Z,69.90
2022-10-18T03:14:24.454Z,70.00
2022-10-18T03:17:02.114Z,69.90
2022-10-18T03:19:35.674Z,70.20
2022-10-18T03:22:10.298Z,70.70
2022-10-18T03:24:43.646Z,70.10
2022-10-18T03:27:16.972Z,70.00
2022-10-18T03:29:50.402Z,70.10
2022-10-18T03:32:23.940Z,70.00
2022-10-18T03:34:57.982Z,70.20
2022-10-18T03:37:32.650Z,70.30
2022-10-18T03:40:07.873Z,70.30
2022-10-18T03:42:41.053Z,70.40
2022-10-18T03:45:14.701Z,70.30
2022-10-18T03:47:48.201Z,70.30
2022-10-18T03:50:21.578Z,70.20
2022-10-18T03:52:56.342Z,70.40
2022-10-18T03:55:29.710Z,70.30
2022-10-18T03:58:02.909Z,70.30
2022-10-18T04:00:36.948Z,70.30
2022-10-18T04:03:10.175Z,70.30
2022-10-18T04:05:43.450Z,70.30
2022-10-18T04:08:19.888Z,70.20
2022-10-18T04:10:53.798Z,70.40
2022-10-18T04:13:27.184Z,70.40
2022-10-18T04:16:00.578Z,70.50
2022-10-18T04:18:33.805Z,70.40
2022-10-18T04:21:07.467Z,70.40
2022-10-18T04:23:42.344Z,70.60
2022-10-18T04:26:16.535Z,70.50
2022-10-18T04:28:50.035Z,70.60
2022-10-18T04:31:23.758Z,70.70
2022-10-18T04:33:57.112Z,70.50
2022-10-18T04:36:30.427Z,70.40
2022-10-18T04:39:05.464Z,70.70
2022-10-18T04:41:38.871Z,70.60
2022-10-18T04:44:12.461Z,70.90
2022-10-18T04:46:46.228Z,71.00
2022-10-18T04:49:19.889Z,71.00
2022-10-18T04:51:53.436Z,71.10
2022-10-18T04:54:28.719Z,71.10
2022-10-18T04:57:02.077Z,71.10
2022-10-18T04:59:35.525Z,71.20
2022-10-18T05:02:09.017Z,71.10
2022-10-18T05:04:43.567Z,71.00
2022-10-18T05:07:17.217Z,71.20
2022-10-18T05:09:52.177Z,71.20
2022-10-18T05:12:26.057Z,71.30
2022-10-18T05:14:59.495Z,71.40
2022-10-18T05:17:33.140Z,72.00
2022-10-18T05:20:08.366Z,71.30
2022-10-18T05:22:42.961Z,71.60
2022-10-18T05:25:17.966Z,71.50
2022-10-18T05:27:51.316Z,71.30
2022-10-18T05:30:26.628Z,71.30
2022-10-18T05:32:59.949Z,71.50
2022-10-18T05:35:39.266Z,71.50
2022-10-18T05:38:12.587Z,71.60
2022-10-18T05:40:47.374Z,71.50
2022-10-18T05:43:29.774Z,71.60
2022-10-18T05:46:04.202Z,71.80
2022-10-18T05:48:37.804Z,71.60
2022-10-18T05:51:11.231Z,71.60
2022-10-18T05:53:46.124Z,71.70
2022-10-18T05:56:21.688Z,71.60
2022-10-18T05:58:54.930Z,71.60
2022-10-18T06:01:30.376Z,71.70
2022-10-18T06:04:04.555Z,71.70
2022-10-18T06:06:38.621Z,71.70
2022-10-18T06:09:16.471Z,72.00
2022-10-18T06:11:51.491Z,71.90
2022-10-18T06:14:25.094Z,71.80
2022-10-18T06:16:58.854Z,72.00
2022-10-18T06:19:32.353Z,71.80
2022-10-18T06:22:05.819Z,72.00
2022-10-18T06:24:41.353Z,71.90
2022-10-18T06:27:44.523Z,72.00
2022-10-18T06:30:18.218Z,72.50
2022-10-18T06:32:52.761Z,72.00
2022-10-18T06:35:28.088Z,72.10
2022-10-18T06:38:03.067Z,72.10
2022-10-18T06:40:38.306Z,72.20
2022-10-18T06:43:21.207Z,72.20
2022-10-18T06:45:55.755Z,72.20
2022-10-18T06:48:30.476Z,72.40
2022-10-18T06:51:07.811Z,72.40
2022-10-18T06:53:44.604Z,72.40
2022-10-18T06:56:34.462Z,72.40
2022-10-18T06:59:10.082Z,72.40
2022-10-18T07:01:46.481Z,72.20
2022-10-18T07:04:28.705Z,72.60
2022-10-18T07:07:04.484Z,72.50
2022-10-18T07:09:40.571Z,72.50
2022-10-18T07:12:22.324Z,72.70
2022-10-18T07:14:58.083Z,72.70
2022-10-18T07:17:32.463Z,72.50
2022-10-18T07:20:07.982Z,72.50
2022-10-18T07:22:41.636Z,72.50
2022-10-18T07:25:18.430Z,72.50
2022-10-18T07:27:52.261Z,72.50
2022-10-18T07:30:29.256Z,72.60
2022-10-18T07:33:02.964Z,72.60
2022-10-18T07:35:36.641Z,72.80
2022-10-18T07:38:10.173Z,72.80
2022-10-18T07:40:45.267Z,72.90
2022-10-18T07:43:18.893Z,72.90
2022-10-18T07:45:59.902Z,72.90
2022-10-18T07:48:33.463Z,73.20
2022-10-18T07:51:07.945Z,73.20
2022-10-18T07:53:44.597Z,73.30
2022-10-18T07:56:21.706Z,73.40
2022-10-18T07:58:59.233Z,73.40
2022-10-18T08:01:35.398Z,73.30
2022-10-18T08:04:17.381Z,73.30
2022-10-18T08:06:51.217Z,73.40
2022-10-18T08:09:24.781Z,73.30
2022-10-18T08:11:58.319Z,73.40
2022-10-18T08:14:32.166Z,73.30
2022-10-18T08:17:07.982Z,73.40
2022-10-18T08:19:52.744Z,73.70
2022-10-18T08:22:35.209Z,73.50
2022-10-18T08:25:10.790Z,73.70
2022-10-18T08:27:45.482Z,73.70
2022-10-18T08:30:19.888Z,73.60
2022-10-18T08:32:56.728Z,73.50
2022-10-18T08:35:31.714Z,73.60
2022-10-18T08:38:16.427Z,73.40
2022-10-18T08:40:52.145Z,73.40
2022-10-18T08:43:37.566Z,73.40
2022-10-18T08:46:16.384Z,73.40
2022-10-18T08:48:57.679Z,73.40
2022-10-18T08:51:40.993Z,73.40
2022-10-18T08:54:22.571Z,73.60
2022-10-18T08:57:04.019Z,73.70
2022-10-18T08:59:43.051Z,74.20
2022-10-18T09:02:41.697Z,73.90
2022-10-18T09:05:29.725Z,74.00
2022-10-18T09:08:35.525Z,73.30
2022-10-18T09:11:25.776Z,74.10
2022-10-18T09:14:40.586Z,74.00
2022-10-18T09:17:29.304Z,74.20
2022-10-18T09:20:23.073Z,74.90
2022-10-18T09:23:06.354Z,74.20
2022-10-18T09:25:54.186Z,74.10
2022-10-18T09:28:45.420Z,74.30
2022-10-18T09:31:34.108Z,74.40
2022-10-18T09:34:17.104Z,74.40
2022-10-18T09:36:53.629Z,74.40
2022-10-18T09:39:33.573Z,74.40
2022-10-18T09:42:17.904Z,74.20
2022-10-18T09:45:00.851Z,74.20
2022-10-18T09:47:46.929Z,74.00
2022-10-18T09:50:30.773Z,74.00
2022-10-18T09:53:18.251Z,74.00
2022-10-18T09:56:02.159Z,73.90
2022-10-18T09:58:47.198Z,74.00
2022-10-18T10:01:25.614Z,74.20
2022-10-18T10:03:59.637Z,74.20
2022-10-18T10:06:39.884Z,74.20
2022-10-18T10:09:18.574Z,74.30
2022-10-18T10:11:55.845Z,74.20
2022-10-18T10:14:31.679Z,74.00
2022-10-18T10:17:23.726Z,74.20
2022-10-18T10:20:02.095Z,74.10
2022-10-18T10:22:40.108Z,73.80
2022-10-18T10:25:29.959Z,73.70
2022-10-18T10:28:12.857Z,73.80
2022-10-18T10:30:46.343Z,73.80
2022-10-18T10:33:38.522Z,73.70
2022-10-18T10:36:21.544Z,73.90
2022-10-18T10:39:09.539Z,73.90
2022-10-18T10:41:44.426Z,74.20
2022-10-18T10:44:21.033Z,74.00
2022-10-18T10:46:55.945Z,73.90
2022-10-18T10:49:47.833Z,74.40
2022-10-18T10:52:28.376Z,74.00
2022-10-18T10:55:30.503Z,74.00
2022-10-18T10:57:58.943Z,73.70
2022-10-18T11:01:19.413Z,73.90
2022-10-18T11:03:56.605Z,74.10
2022-10-18T11:07:03.900Z,73.70
2022-10-18T11:09:59.435Z,73.30
2022-10-18T11:12:35.942Z,72.00
2022-10-18T11:15:23.494Z,71.60
2022-10-18T11:18:10.320Z,71.20
2022-10-18T11:20:50.203Z,71.40
2022-10-18T11:23:32.213Z,71.20
2022-10-18T11:26:48.830Z,71.50
2022-10-18T11:29:55.435Z,71.50
2022-10-18T11:32:44.814Z,70.70
2022-10-18T11:35:38.763Z,70.20
2022-10-18T11:38:35.754Z,70.40
2022-10-18T11:41:41.191Z,69.70
2022-10-18T11:44:29.279Z,69.30
2022-10-18T11:47:14.370Z,69.20
2022-10-18T11:50:13.714Z,69.20
2022-10-18T11:53:01.978Z,69.20
2022-10-18T11:55:50.488Z,68.10
2022-10-18T11:58:46.963Z,67.30
2022-10-18T12:01:31.402Z,67.50
2022-10-18T12:04:14.332Z,67.30
2022-10-18T12:06:53.510Z,67.10
2022-10-18T12:09:35.744Z,66.80
2022-10-18T12:12:15.691Z,67.00
2022-10-18T12:14:54.892Z,66.80
2022-10-18T12:17:46.200Z,66.00
2022-10-18T12:20:31.030Z,65.20
2022-10-18T12:23:12.442Z,65.10
2022-10-18T12:25:54.060Z,64.90
2022-10-18T12:28:46.065Z,64.20
2022-10-18T12:31:52.955Z,64.20
2022-10-18T12:34:38.351Z,64.10
2022-10-18T12:37:51.287Z,63.10
2022-10-18T12:40:35.869Z,62.60
2022-10-18T12:43:22.044Z,63.20
2022-10-18T12:46:00.349Z,62.90
2022-10-18T12:48:38.727Z,62.80
2022-10-18T12:51:18.081Z,62.80
2022-10-18T12:54:12.005Z,63.00
2022-10-18T12:56:47.878Z,61.90
2022-10-18T12:59:51.914Z,62.10
2022-10-18T13:02:32.349Z,61.20
2022-10-18T13:05:56.860Z,61.30
2022-10-18T13:08:43.422Z,59.50
2022-10-18T13:11:36.814Z,59.60
2022-10-18T13:14:53.627Z,59.40
2022-10-18T13:17:51.847Z,59.00
2022-10-18T13:20:39.364Z,59.30
2022-10-18T13:23:38.585Z,59.40
2022-10-18T13:26:26.544Z,59.10
2022-10-18T13:29:25.354Z,59.50
2022-10-18T13:34:54.662Z,59.30
2022-10-18T13:37:41.237Z,59.10
2022-10-18T13:40:27.528Z,58.60
2022-10-18T13:43:59.772Z,58.60
2022-10-18T13:47:14.924Z,58.00
2022-10-18T13:50:33.095Z,58.40
2022-10-18T13:53:44.656Z,57.80
2022-10-18T13:56:59.806Z,58.20
2022-10-18T14:00:10.968Z,57.30
2022-10-18T14:03:56.501Z,57.00
2022-10-18T14:06:41.799Z,56.50
2022-10-18T14:09:40.339Z,56.70
2022-10-18T14:12:30.988Z,56.50
2022-10-18T14:15:18.715Z,56.30
2022-10-18T14:18:00.170Z,56.20
2022-10-18T14:20:49.460Z,55.90
2022-10-18T14:23:42.727Z,56.30
2022-10-18T14:26:21.163Z,56.30
2022-10-18T14:29:07.273Z,56.50
2022-10-18T14:31:41.867Z,56.10
2022-10-18T14:34:18.903Z,56.80
2022-10-18T14:36:54.024Z,56.50
2022-10-18T14:39:30.561Z,56.80
2022-10-18T14:42:04.418Z,56.50
2022-10-18T14:44:42.530Z,56.30
2022-10-18T14:47:21.765Z,56.40
2022-10-18T14:49:58.114Z,56.20
2022-10-18T14:52:36.198Z,56.20
2022-10-18T14:55:23.147Z,56.20
2022-10-18T14:57:57.126Z,56.10
2022-10-18T15:00:38.731Z,56.50
2022-10-18T15:03:18.313Z,56.00
2022-10-18T15:06:00.610Z,56.30
2022-10-18T15:08:39.839Z,56.20
2022-10-18T15:11:15.737Z,56.30
2022-10-18T15:13:58.032Z,56.40
2022-10-18T15:16:34.027Z,56.50
2022-10-18T15:19:33.067Z,56.70
2022-10-18T15:22:30.766Z,56.70
2022-10-18T15:25:20.527Z,56.70
2022-10-18T15:27:58.597Z,56.50
2022-10-18T15:30:42.698Z,56.90
2022-10-18T15:33:25.100Z,56.60
2022-10-18T15:36:11.219Z,56.70
2022-10-18T15:38:49.075Z,56.30
2022-10-18T15:41:43.377Z,56.50
2022-10-18T15:44:27.889Z,56.00
2022-10-18T15:47:21.271Z,56.20
2022-10-18T15:49:58.636Z,56.00
2022-10-18T15:52:42.245Z,56.40
2022-10-18T15:55:48.301Z,56.20
2022-10-18T15:58:26.307Z,55.90
2022-10-18T16:01:02.705Z,56.20
2022-10-18T16:03:38.640Z,56.10
2022-10-18T16:06:15.990Z,56.10
2022-10-18T16:08:54.399Z,56.10
2022-10-18T16:11:29.758Z,56.40
2022-10-18T16:14:03.491Z,56.30
2022-10-18T16:16:41.579Z,56.20
2022-10-18T16:19:18.649Z,56.50
2022-10-18T16:21:54.681Z,56.60
2022-10-18T16:24:28.186Z,56.60
2022-10-18T16:27:03.099Z,56.70
2022-10-18T16:29:36.706Z,56.90
2022-10-18T16:32:10.049Z,56.90
2022-10-18T16:34:43.816Z,56.90
2022-10-18T16:37:17.626Z,56.70
2022-10-18T16:39:50.931Z,56.90
2022-10-18T16:42:25.739Z,57.00
2022-10-18T16:44:59.103Z,57.60
2022-10-18T16:47:32.417Z,57.10
2022-10-18T16:50:08.340Z,57.00
2022-10-18T16:52:42.028Z,57.20
2022-10-18T16:55:21.905Z,57.20
2022-10-18T16:58:00.620Z,57.20
2022-10-18T17:00:34.853Z,57.20
2022-10-18T17:03:08.511Z,57.30
2022-10-18T17:05:42.650Z,57.30
2022-10-18T17:08:21.202Z,57.10
2022-10-18T17:10:57.293Z,57.30
2022-10-18T17:13:32.028Z,57.30
2022-10-18T17:16:06.793Z,57.30
2022-10-18T17:18:40.056Z,57.50
2022-10-18T17:24:13.431Z,57.50
2022-10-18T17:26:46.748Z,57.40
2022-10-18T17:29:23.362Z,57.30
2022-10-18T17:31:57.301Z,57.30
2022-10-18T17:34:37.836Z,57.40
2022-10-18T17:37:11.665Z,57.60
2022-10-18T17:39:45.214Z,57.50
2022-10-18T17:42:21.774Z,57.60
2022-10-18T17:44:57.818Z,57.50
2022-10-18T17:47:31.981Z,57.60
2022-10-18T17:50:06.672Z,57.60
2022-10-18T17:55:17.686Z,57.80
2022-10-18T17:57:52.867Z,57.90
2022-10-18T18:00:29.191Z,57.80
2022-10-18T18:03:02.843Z,57.90
2022-10-18T18:05:48.215Z,57.80
2022-10-18T18:08:21.793Z,58.00
2022-10-18T18:10:56.801Z,57.90
2022-10-18T18:13:30.870Z,58.00
2022-10-18T18:16:15.257Z,57.90
2022-10-18T18:18:52.548Z,58.00
2022-10-18T18:21:27.602Z,57.90
2022-10-18T18:24:01.433Z,57.90
2022-10-18T18:26:35.977Z,57.90
2022-10-18T18:29:09.752Z,58.20
2022-10-18T18:31:44.946Z,58.10
2022-10-18T18:34:19.800Z,58.20
2022-10-18T18:36:53.586Z,58.30
2022-10-18T18:39:29.625Z,58.20
2022-10-18T18:42:05.116Z,58.30
2022-10-18T18:44:38.359Z,58.40
2022-10-18T18:47:13.532Z,58.30
2022-10-18T18:49:46.983Z,58.40
2022-10-18T18:52:20.314Z,58.40
2022-10-18T18:54:53.564Z,58.40
2022-10-18T18:57:26.984Z,58.40
2022-10-18T19:00:13.369Z,58.30
2022-10-18T19:02:48.135Z,58.50
2022-10-18T19:07:54.935Z,58.50
2022-10-18T19:10:28.922Z,58.60
2022-10-18T19:13:02.521Z,58.60
2022-10-18T19:15:35.810Z,58.60
2022-10-18T19:18:39.346Z,58.70
2022-10-18T19:21:12.784Z,58.80
2022-10-18T19:23:46.196Z,58.70
2022-10-18T19:26:34.361Z,58.60
2022-10-18T19:29:14.241Z,58.80
2022-10-18T19:31:48.207Z,59.30
2022-10-18T19:34:25.188Z,58.80
2022-10-18T19:36:59.341Z,58.90
2022-10-18T19:39:35.693Z,58.80
2022-10-18T19:42:15.990Z,59.10
2022-10-18T19:44:53.221Z,59.60
2022-10-18T19:47:26.891Z,58.90
2022-10-18T19:50:01.739Z,59.00
2022-10-18T19:52:36.077Z,59.10
2022-10-18T19:55:10.237Z,59.10
2022-10-18T19:57:43.734Z,59.20
2022-10-18T20:00:23.585Z,59.20
2022-10-18T20:02:57.006Z,59.30
2022-10-18T20:05:31.773Z,59.10
2022-10-18T20:08:05.360Z,59.10
2022-10-18T20:10:38.753Z,59.10
2022-10-18T20:13:12.027Z,59.10
2022-10-18T20:15:47.567Z,59.40
2022-10-18T20:18:22.374Z,59.20
2022-10-18T20:20:57.287Z,59.30
2022-10-18T20:23:32.391Z,59.10
2022-10-18T20:26:09.183Z,59.20
2022-10-18T20:28:43.210Z,59.20
2022-10-18T20:31:20.211Z,59.20
2022-10-18T20:33:57.541Z,59.30
2022-10-18T20:36:34.616Z,59.30
2022-10-18T20:39:09.047Z,59.30
2022-10-18T20:41:42.795Z,59.20
2022-10-18T20:44:19.571Z,59.20
2022-10-18T20:46:53.102Z,59.30
2022-10-18T20:49:27.242Z,59.30
2022-10-18T20:52:02.596Z,59.40
2022-10-18T20:54:36.004Z,59.30
2022-10-18T20:57:09.520Z,59.30
2022-10-18T20:59:43.439Z,59.40
2022-10-18T21:02:16.847Z,59.50
2022-10-18T21:04:50.143Z,59.50
2022-10-18T21:07:24.841Z,59.50
2022-10-18T21:09:58.254Z,59.40
2022-10-18T21:12:44.414Z,59.50
2022-10-18T21:15:18.001Z,59.60
2022-10-18T21:17:52.205Z,59.70
2022-10-18T21:20:25.725Z,59.60
2022-10-18T21:23:00.417Z,59.50
2022-10-18T21:25:33.737Z,59.60
2022-10-18T21:28:07.239Z,59.50
2022-10-18T21:30:40.607Z,59.60
2022-10-18T21:33:13.938Z,59.50
2022-10-18T21:35:47.201Z,59.50
2022-10-18T21:38:21.896Z,59.50
2022-10-18T21:40:55.257Z,59.60
2022-10-18T21:43:29.039Z,59.60
2022-10-18T21:46:03.764Z,59.60
2022-10-18T21:48:38.357Z,59.50
2022-10-18T21:51:12.240Z,59.60
2022-10-18T21:53:49.838Z,59.70
2022-10-18T21:56:25.771Z,59.60
2022-10-18T21:59:03.301Z,59.60
2022-10-18T22:01:42.942Z,59.60
2022-10-18T22:04:22.348Z,59.70
2022-10-18T22:06:55.881Z,59.70
2022-10-18T22:09:30.842Z,59.60
2022-10-18T22:12:04.852Z,59.60
2022-10-18T22:14:40.215Z,59.60
2022-10-18T22:17:14.683Z,59.60
2022-10-18T22:19:48.353Z,59.70
2022-10-18T22:22:21.715Z,59.60
2022-10-18T22:24:56.420Z,59.70
2022-10-18T22:27:31.503Z,59.60
2022-10-18T22:30:05.912Z,59.70
2022-10-18T22:32:41.484Z,59.90
2022-10-18T22:35:17.255Z,59.70
2022-10-18T22:37:54.316Z,59.70
2022-10-18T22:40:29.521Z,59.70
2022-10-18T22:43:03.122Z,59.90
2022-10-18T22:45:36.405Z,59.80
2022-10-18T22:48:09.718Z,59.80
2022-10-18T22:50:43.113Z,59.80
2022-10-18T22:53:16.442Z,59.80
2022-10-18T22:55:52.290Z,59.80
2022-10-18T22:58:25.965Z,60.00
2022-10-18T23:01:04.984Z,59.90
2022-10-18T23:03:39.611Z,59.90
2022-10-18T23:06:23.854Z,60.00
2022-10-18T23:09:00.421Z,60.10
2022-10-18T23:11:36.906Z,60.10
2022-10-18T23:14:11.913Z,60.00
2022-10-18T23:16:47.474Z,60.10
2022-10-18T23:19:20.787Z,60.60
2022-10-18T23:21:54.043Z,60.00
2022-10-18T23:24:27.418Z,59.90
2022-10-18T23:27:02.643Z,60.10
2022-10-18T23:29:36.019Z,59.90
2022-10-18T23:32:09.586Z,60.00
2022-10-18T23:34:43.261Z,60.00
2022-10-18T23:37:16.926Z,60.00
2022-10-18T23:39:50.232Z,60.10
2022-10-18T23:42:25.039Z,60.10
2022-10-18T23:44:58.446Z,60.10
2022-10-18T23:47:33.296Z,60.00
2022-10-18T23:50:07.989Z,60.10
2022-10-18T23:52:41.454Z,60.20
2022-10-18T23:55:15.038Z,60.00
2022-10-18T23:57:49.642Z,60.20
